Time;durP1;ratioP1;P1;durP2;ratioP2;P2;SDS_P1;SDS_P2;PMS_P1;PMS_P2;Temp;Humidity;BMP_temperature;BMP_pressure;BME280_temperature;BME280_humidity;BME280_pressure;Samples;Min_cycle;Max_cycle;Signal;HPM_P1;HPM_P2
2022/09/11 00:00:03;;;;;;;5.30;4.90;;;;;;;;;;5046231;28;24458;-47
2022/09/11 00:02:28;;;;;;;5.67;5.27;;;;;;;;;;5038117;28;24448;-47
2022/09/11 00:04:54;;;;;;;5.75;5.25;;;;;;;;;;5045044;28;24489;-46
2022/09/11 00:07:19;;;;;;;5.50;5.10;;;;;;;;;;5041835;28;25010;-47
2022/09/11 00:09:44;;;;;;;5.50;5.00;;;;;;;;;;5031440;28;24990;-47
2022/09/11 00:12:09;;;;;;;5.40;5.00;;;;;;;;;;5037714;28;24442;-47
2022/09/11 00:14:34;;;;;;;5.03;4.73;;;;;;;;;;5036473;28;24461;-47
2022/09/11 00:17:00;;;;;;;5.60;5.20;;;;;;;;;;5030983;28;24984;-47
2022/09/11 00:19:27;;;;;;;5.30;4.90;;;;;;;;;;5047804;28;24488;-47
2022/09/11 00:21:54;;;;;;;5.72;5.32;;;;;;;;;;5049614;28;24551;-47
2022/09/11 00:24:19;;;;;;;5.50;5.10;;;;;;;;;;5033697;28;24427;-47
2022/09/11 00:26:46;;;;;;;6.72;6.22;;;;;;;;;;5034298;28;24861;-47
2022/09/11 00:29:11;;;;;;;5.20;4.80;;;;;;;;;;5043078;28;24510;-47
2022/09/11 00:31:36;;;;;;;6.00;5.50;;;;;;;;;;5032882;28;24491;-48
2022/09/11 00:34:01;;;;;;;5.70;5.30;;;;;;;;;;5042672;28;25018;-47
2022/09/11 00:36:28;;;;;;;6.03;5.53;;;;;;;;;;5043946;28;24450;-46
2022/09/11 00:38:53;;;;;;;6.18;5.78;;;;;;;;;;5053905;28;25122;-45
2022/09/11 00:41:24;;;;;;;5.30;5.00;;;;;;;;;;5048151;28;24600;-45
2022/09/11 00:43:49;;;;;;;5.50;5.10;;;;;;;;;;5048739;28;24511;-47
2022/09/11 00:46:15;;;;;;;5.75;5.35;;;;;;;;;;5047111;28;24498;-47
2022/09/11 00:48:40;;;;;;;5.40;5.00;;;;;;;;;;5038642;28;24495;-47
2022/09/11 00:51:05;;;;;;;5.17;4.80;;;;;;;;;;5039512;28;24510;-47
2022/09/11 00:53:33;;;;;;;5.20;4.80;;;;;;;;;;5049732;28;24421;-46
2022/09/11 00:56:00;;;;;;;5.85;5.35;;;;;;;;;;5045574;28;24502;-47
2022/09/11 00:58:28;;;;;;;5.30;4.80;;;;;;;;;;5048352;28;24832;-47
2022/09/11 01:00:54;;;;;;;6.18;5.68;;;;;;;;;;5045708;28;25004;-47
2022/09/11 01:03:19;;;;;;;5.80;5.30;;;;;;;;;;5042384;28;24847;-47
2022/09/11 01:05:47;;;;;;;5.30;5.00;;;;;;;;;;5045635;28;24565;-47
2022/09/11 01:08:12;;;;;;;5.20;4.80;;;;;;;;;;5047258;28;24415;-47
2022/09/11 01:10:47;;;;;;;5.82;5.43;;;;;;;;;;5042136;28;24528;-47
2022/09/11 01:13:26;;;;;;;5.47;5.07;;;;;;;;;;5033996;28;24411;-47
2022/09/11 01:16:11;;;;;;;5.80;5.40;;;;;;;;;;5041556;28;25079;-47
2022/09/11 01:18:50;;;;;;;6.40;5.90;;;;;;;;;;5046462;28;24435;-47
2022/09/11 01:21:18;;;;;;;5.68;5.28;;;;;;;;;;5039185;28;24547;-47
2022/09/11 01:23:46;;;;;;;5.30;5.00;;;;;;;;;;5039459;28;24427;-48
2022/09/11 01:26:31;;;;;;;5.50;5.10;;;;;;;;;;5039766;28;24416;-47
2022/09/11 01:29:07;;;;;;;5.30;4.90;;;;;;;;;;5032757;28;24424;-48
2022/09/11 01:31:35;;;;;;;5.38;4.97;;;;;;;;;;5040039;28;24435;-47
2022/09/11 01:34:08;;;;;;;5.75;5.35;;;;;;;;;;5035685;28;25000;-47
2022/09/11 01:36:45;;;;;;;5.28;4.80;;;;;;;;;;5037784;28;24802;-48
2022/09/11 01:39:12;;;;;;;5.25;4.85;;;;;;;;;;5040901;28;24426;-47
2022/09/11 01:41:43;;;;;;;5.75;5.35;;;;;;;;;;5034896;28;25002;-47
2022/09/11 01:44:14;;;;;;;5.00;4.60;;;;;;;;;;5043355;28;24965;-48
2022/09/11 01:46:42;;;;;;;5.50;5.10;;;;;;;;;;5041341;28;24510;-47
2022/09/11 01:49:11;;;;;;;5.20;4.80;;;;;;;;;;5043334;28;25048;-46
2022/09/11 01:51:37;;;;;;;5.72;5.22;;;;;;;;;;5046264;28;24533;-47
2022/09/11 01:54:05;;;;;;;5.13;4.73;;;;;;;;;;5045648;28;24985;-46
2022/09/11 01:56:33;;;;;;;5.50;5.00;;;;;;;;;;5034855;28;24534;-47
2022/09/11 01:59:00;;;;;;;5.45;4.85;;;;;;;;;;5036221;28;24762;-47
2022/09/11 02:01:29;;;;;;;5.13;4.72;;;;;;;;;;5034737;28;24790;-47
2022/09/11 02:04:00;;;;;;;4.95;4.60;;;;;;;;;;5031308;28;24420;-47
2022/09/11 02:06:30;;;;;;;5.32;4.93;;;;;;;;;;5040509;28;24424;-46
2022/09/11 02:08:57;;;;;;;5.07;4.67;;;;;;;;;;5036868;28;24455;-46
2022/09/11 02:11:23;;;;;;;5.10;4.57;;;;;;;;;;5041725;28;24434;-47
2022/09/11 02:13:48;;;;;;;5.00;4.60;;;;;;;;;;5032458;28;24428;-47
2022/09/11 02:16:22;;;;;;;4.60;4.20;;;;;;;;;;5040155;28;24426;-47
2022/09/11 02:18:54;;;;;;;4.80;4.40;;;;;;;;;;5035997;28;24442;-47
2022/09/11 02:21:20;;;;;;;4.70;4.40;;;;;;;;;;5040340;28;24435;-47
2022/09/11 02:23:45;;;;;;;4.80;4.50;;;;;;;;;;5038151;28;24428;-47
2022/09/11 02:26:11;;;;;;;4.90;4.60;;;;;;;;;;5044237;28;24486;-46
2022/09/11 02:28:36;;;;;;;4.60;4.30;;;;;;;;;;5043204;28;24793;-46
2022/09/11 02:31:02;;;;;;;4.70;4.30;;;;;;;;;;5033305;28;25052;-47
2022/09/11 02:33:28;;;;;;;4.80;4.40;;;;;;;;;;5039567;28;24427;-46
2022/09/11 02:35:58;;;;;;;5.40;5.00;;;;;;;;;;5040268;28;24492;-47
2022/09/11 02:38:26;;;;;;;4.90;4.60;;;;;;;;;;5043441;28;24969;-46
2022/09/11 02:40:57;;;;;;;4.68;4.38;;;;;;;;;;5034718;28;24993;-48
2022/09/11 02:43:29;;;;;;;5.28;4.88;;;;;;;;;;5030003;28;24813;-47
2022/09/11 02:46:15;;;;;;;4.80;4.40;;;;;;;;;;5042474;28;24779;-48
2022/09/11 02:48:59;;;;;;;4.72;4.43;;;;;;;;;;5044007;28;24511;-47
2022/09/11 02:51:35;;;;;;;4.40;4.10;;;;;;;;;;5034798;28;24513;-47
2022/09/11 02:54:04;;;;;;;4.90;4.50;;;;;;;;;;5039637;28;24561;-47
2022/09/11 02:56:37;;;;;;;5.10;4.70;;;;;;;;;;5043659;28;24434;-46
2022/09/11 02:59:05;;;;;;;5.00;4.60;;;;;;;;;;5036145;28;24786;-46
2022/09/11 03:01:43;;;;;;;5.18;4.88;;;;;;;;;;5037035;28;24442;-47
2022/09/11 03:04:08;;;;;;;4.70;4.40;;;;;;;;;;5046408;28;24429;-46
2022/09/11 03:06:34;;;;;;;5.25;4.75;;;;;;;;;;5045077;28;24516;-48
2022/09/11 03:08:59;;;;;;;4.90;4.60;;;;;;;;;;5043088;28;24485;-47
2022/09/11 03:11:24;;;;;;;4.35;3.95;;;;;;;;;;5034009;28;24427;-47
2022/09/11 03:13:49;;;;;;;5.28;4.88;;;;;;;;;;5037056;28;24489;-47
2022/09/11 03:16:14;;;;;;;4.50;4.20;;;;;;;;;;5046068;28;24418;-49
2022/09/11 03:18:39;;;;;;;4.60;4.30;;;;;;;;;;5043404;28;24493;-47
2022/09/11 03:21:05;;;;;;;4.90;4.50;;;;;;;;;;5033842;28;24504;-51
2022/09/11 03:23:30;;;;;;;4.20;3.90;;;;;;;;;;5043740;28;24452;-47
2022/09/11 03:25:55;;;;;;;4.70;4.40;;;;;;;;;;5029095;28;24420;-47
2022/09/11 03:28:21;;;;;;;4.38;3.97;;;;;;;;;;5040968;28;24998;-46
2022/09/11 03:30:48;;;;;;;4.30;4.00;;;;;;;;;;5037648;28;24427;-47
2022/09/11 03:33:13;;;;;;;4.40;4.10;;;;;;;;;;5032261;28;24828;-47
2022/09/11 03:35:38;;;;;;;4.63;4.25;;;;;;;;;;5026196;28;24508;-48
2022/09/11 03:38:03;;;;;;;4.10;3.90;;;;;;;;;;5040184;28;24635;-48
2022/09/11 03:40:28;;;;;;;4.10;3.80;;;;;;;;;;5037176;28;25147;-48
2022/09/11 03:42:54;;;;;;;4.40;4.10;;;;;;;;;;5042585;28;25048;-47
2022/09/11 03:45:20;;;;;;;4.45;4.15;;;;;;;;;;5039998;28;24519;-48
2022/09/11 03:47:45;;;;;;;4.30;4.00;;;;;;;;;;5039212;28;24452;-47
2022/09/11 03:50:10;;;;;;;4.20;3.90;;;;;;;;;;5036174;28;24473;-47
2022/09/11 03:52:36;;;;;;;3.97;3.67;;;;;;;;;;5036955;28;24423;-48
2022/09/11 03:55:02;;;;;;;4.50;4.10;;;;;;;;;;5037700;28;24423;-48
2022/09/11 03:57:27;;;;;;;4.25;3.95;;;;;;;;;;5035313;28;24985;-48
2022/09/11 03:59:54;;;;;;;4.80;4.40;;;;;;;;;;5040749;28;24525;-48
2022/09/11 04:02:22;;;;;;;4.45;4.15;;;;;;;;;;5031888;28;24455;-48
2022/09/11 04:04:47;;;;;;;4.60;4.30;;;;;;;;;;5043511;28;24427;-48
2022/09/11 04:07:12;;;;;;;4.80;4.40;;;;;;;;;;5044554;28;24418;-48
2022/09/11 04:09:37;;;;;;;4.30;4.00;;;;;;;;;;5039903;28;24429;-48
2022/09/11 04:12:02;;;;;;;4.70;4.30;;;;;;;;;;5030308;28;24498;-47
2022/09/11 04:14:27;;;;;;;3.90;3.60;;;;;;;;;;5037463;28;24961;-47
2022/09/11 04:16:53;;;;;;;4.03;3.72;;;;;;;;;;5045101;28;24423;-47
2022/09/11 04:19:20;;;;;;;4.20;3.90;;;;;;;;;;5032737;28;24997;-47
2022/09/11 04:21:45;;;;;;;4.30;4.00;;;;;;;;;;5039338;28;24475;-47
2022/09/11 04:24:10;;;;;;;4.30;3.90;;;;;;;;;;5033979;28;25010;-47
2022/09/11 04:26:35;;;;;;;5.00;4.50;;;;;;;;;;5035297;28;24426;-47
2022/09/11 04:29:00;;;;;;;4.40;4.10;;;;;;;;;;5041962;28;24608;-48
2022/09/11 04:31:29;;;;;;;4.85;4.45;;;;;;;;;;5039781;28;24877;-47
2022/09/11 04:33:54;;;;;;;4.50;4.20;;;;;;;;;;5036485;28;25048;-48
2022/09/11 04:36:20;;;;;;;4.20;3.90;;;;;;;;;;5036926;28;24847;-47
2022/09/11 04:38:46;;;;;;;4.30;4.00;;;;;;;;;;5044291;28;24420;-48
2022/09/11 04:41:11;;;;;;;4.30;4.00;;;;;;;;;;5040790;28;24459;-48
2022/09/11 04:43:38;;;;;;;4.40;4.10;;;;;;;;;;5036546;28;24962;-50
2022/09/11 04:46:04;;;;;;;4.20;3.90;;;;;;;;;;5042094;28;24851;-46
2022/09/11 04:48:29;;;;;;;4.00;3.70;;;;;;;;;;5033222;28;24427;-47
2022/09/11 04:50:59;;;;;;;4.53;4.13;;;;;;;;;;5038288;28;24437;-48
2022/09/11 04:53:24;;;;;;;4.30;3.90;;;;;;;;;;5042513;28;24422;-47
2022/09/11 04:55:49;;;;;;;4.50;4.10;;;;;;;;;;5032700;28;24478;-46
2022/09/11 04:58:14;;;;;;;4.10;3.80;;;;;;;;;;5032373;28;24431;-46
2022/09/11 05:00:39;;;;;;;4.70;4.30;;;;;;;;;;5038127;28;24455;-46
2022/09/11 05:03:05;;;;;;;4.30;4.00;;;;;;;;;;5037875;28;25019;-48
2022/09/11 05:05:30;;;;;;;3.90;3.60;;;;;;;;;;5041480;28;25543;-47
2022/09/11 05:07:55;;;;;;;4.30;4.00;;;;;;;;;;5053799;28;24601;-47
2022/09/11 05:10:20;;;;;;;4.13;3.83;;;;;;;;;;5036266;28;25035;-48
2022/09/11 05:12:45;;;;;;;4.60;4.20;;;;;;;;;;5030396;28;24582;-46
2022/09/11 05:15:11;;;;;;;4.60;4.30;;;;;;;;;;5047037;28;24411;-47
2022/09/11 05:17:36;;;;;;;4.53;4.22;;;;;;;;;;5046086;28;24419;-47
2022/09/11 05:20:01;;;;;;;4.70;4.30;;;;;;;;;;5047378;28;24490;-48
2022/09/11 05:22:26;;;;;;;4.10;3.80;;;;;;;;;;5040956;28;25240;-47
2022/09/11 05:24:52;;;;;;;4.30;3.90;;;;;;;;;;5044123;28;24415;-48
2022/09/11 05:27:17;;;;;;;4.00;3.70;;;;;;;;;;5034838;28;24415;-48
2022/09/11 05:29:43;;;;;;;4.40;3.95;;;;;;;;;;5043401;28;24425;-48
2022/09/11 05:32:08;;;;;;;4.43;4.13;;;;;;;;;;5039491;28;24428;-47
2022/09/11 05:34:33;;;;;;;4.50;4.20;;;;;;;;;;5033805;28;24519;-47
2022/09/11 05:36:58;;;;;;;4.97;4.57;;;;;;;;;;5030770;28;25027;-48
2022/09/11 05:39:23;;;;;;;4.27;3.97;;;;;;;;;;5039543;28;24514;-48
2022/09/11 05:41:52;;;;;;;4.30;4.00;;;;;;;;;;5041011;28;25189;-48
2022/09/11 05:44:18;;;;;;;4.43;4.13;;;;;;;;;;5040210;28;24470;-47
2022/09/11 05:46:43;;;;;;;4.30;3.90;;;;;;;;;;5036731;28;24411;-47
2022/09/11 05:49:08;;;;;;;5.55;4.40;;;;;;;;;;5030105;28;24418;-48
2022/09/11 05:51:36;;;;;;;4.32;4.03;;;;;;;;;;5041747;28;24519;-48
2022/09/11 05:54:01;;;;;;;5.53;5.03;;;;;;;;;;5033624;28;24411;-48
2022/09/11 05:56:27;;;;;;;4.57;4.27;;;;;;;;;;5034890;28;24435;-48
2022/09/11 05:58:52;;;;;;;5.23;4.83;;;;;;;;;;5028365;28;25025;-47
2022/09/11 06:01:19;;;;;;;5.40;5.00;;;;;;;;;;5038384;28;24508;-48
2022/09/11 06:03:46;;;;;;;4.90;4.60;;;;;;;;;;5041634;28;24534;-47
2022/09/11 06:06:12;;;;;;;5.22;4.82;;;;;;;;;;5028671;28;24426;-47
2022/09/11 06:08:38;;;;;;;4.90;4.50;;;;;;;;;;5038791;28;24450;-48
2022/09/11 06:11:06;;;;;;;4.43;4.13;;;;;;;;;;5030411;28;24955;-46
2022/09/11 06:13:32;;;;;;;4.53;4.13;;;;;;;;;;5041100;28;24482;-47
2022/09/11 06:15:58;;;;;;;4.90;4.50;;;;;;;;;;5039819;28;24547;-46
2022/09/11 06:18:23;;;;;;;5.10;4.70;;;;;;;;;;5040029;28;24502;-46
2022/09/11 06:20:59;;;;;;;4.70;4.30;;;;;;;;;;5037185;28;24450;-47
2022/09/11 06:23:24;;;;;;;5.50;5.00;;;;;;;;;;5035857;28;24412;-47
2022/09/11 06:25:50;;;;;;;5.60;5.20;;;;;;;;;;5033777;28;24434;-47
2022/09/11 06:28:15;;;;;;;6.20;5.70;;;;;;;;;;5040381;28;24492;-46
2022/09/11 06:30:41;;;;;;;5.63;5.13;;;;;;;;;;5043998;28;24431;-47
2022/09/11 06:33:06;;;;;;;6.37;5.87;;;;;;;;;;5029818;28;25044;-46
2022/09/11 06:35:32;;;;;;;7.00;6.40;;;;;;;;;;5032141;28;24486;-48
2022/09/11 06:37:57;;;;;;;6.85;6.35;;;;;;;;;;5033497;28;24427;-46
2022/09/11 06:40:23;;;;;;;7.63;6.93;;;;;;;;;;5033968;28;24526;-48
2022/09/11 06:42:49;;;;;;;7.43;6.93;;;;;;;;;;5035368;28;24418;-47
2022/09/11 06:45:14;;;;;;;6.40;5.80;;;;;;;;;;5035361;28;24486;-47
2022/09/11 06:47:39;;;;;;;7.53;6.93;;;;;;;;;;5033691;28;24423;-47
2022/09/11 06:50:05;;;;;;;7.05;6.55;;;;;;;;;;5042476;28;24422;-47
2022/09/11 06:52:33;;;;;;;6.88;6.28;;;;;;;;;;5037708;28;24438;-47
2022/09/11 06:54:59;;;;;;;8.07;7.43;;;;;;;;;;5038365;28;24438;-47
2022/09/11 06:57:24;;;;;;;7.10;6.50;;;;;;;;;;5032878;28;24427;-47
2022/09/11 06:59:51;;;;;;;7.82;7.20;;;;;;;;;;5034822;28;24430;-47
2022/09/11 07:02:16;;;;;;;7.90;7.30;;;;;;;;;;5036492;28;25256;-47
2022/09/11 07:04:41;;;;;;;7.57;6.97;;;;;;;;;;5028162;28;24525;-49
2022/09/11 07:07:06;;;;;;;7.63;7.03;;;;;;;;;;5040979;28;24446;-47
2022/09/11 07:09:31;;;;;;;8.60;7.93;;;;;;;;;;5044265;28;24429;-47
2022/09/11 07:11:56;;;;;;;7.63;7.03;;;;;;;;;;5041391;28;24535;-46
2022/09/11 07:14:22;;;;;;;8.50;7.80;;;;;;;;;;5028082;28;24846;-47
2022/09/11 07:16:48;;;;;;;9.20;8.40;;;;;;;;;;5036103;28;24426;-47
2022/09/11 07:19:14;;;;;;;9.20;8.50;;;;;;;;;;5041225;28;25215;-47
2022/09/11 07:21:39;;;;;;;8.50;7.90;;;;;;;;;;5026788;28;24478;-48
2022/09/11 07:24:04;;;;;;;8.53;7.93;;;;;;;;;;5026096;28;24416;-48
2022/09/11 07:26:29;;;;;;;8.97;8.27;;;;;;;;;;5043413;28;24424;-47
2022/09/11 07:28:56;;;;;;;9.87;9.07;;;;;;;;;;5028349;28;24872;-48
2022/09/11 07:31:22;;;;;;;10.07;9.27;;;;;;;;;;5040582;28;24427;-47
2022/09/11 07:33:48;;;;;;;10.23;9.43;;;;;;;;;;5035295;28;24423;-48
2022/09/11 07:36:15;;;;;;;8.73;8.13;;;;;;;;;;5041724;28;24818;-47
2022/09/11 07:38:41;;;;;;;8.25;7.65;;;;;;;;;;5026747;28;24479;-47
2022/09/11 07:41:07;;;;;;;9.35;8.55;;;;;;;;;;5043038;28;24517;-47
2022/09/11 07:43:33;;;;;;;9.90;9.20;;;;;;;;;;5026591;28;24507;-46
2022/09/11 07:45:59;;;;;;;8.27;7.68;;;;;;;;;;5039595;28;24431;-48
2022/09/11 07:48:24;;;;;;;9.23;8.52;;;;;;;;;;5046718;28;24391;-47
2022/09/11 07:50:56;;;;;;;8.00;7.40;;;;;;;;;;5027493;28;24419;-47
2022/09/11 07:53:21;;;;;;;9.38;8.68;;;;;;;;;;5026371;28;24770;-47
2022/09/11 07:55:46;;;;;;;8.10;7.40;;;;;;;;;;5030349;28;24428;-47
2022/09/11 07:58:12;;;;;;;8.05;7.45;;;;;;;;;;5025836;28;24424;-47
2022/09/11 08:00:37;;;;;;;7.38;6.78;;;;;;;;;;5025989;28;24432;-47
2022/09/11 08:03:03;;;;;;;8.00;7.40;;;;;;;;;;5026226;28;24511;-47
2022/09/11 08:05:28;;;;;;;7.40;6.70;;;;;;;;;;5024480;28;25111;-47
2022/09/11 08:07:53;;;;;;;7.35;6.85;;;;;;;;;;5032768;28;24511;-47
2022/09/11 08:10:18;;;;;;;7.80;7.20;;;;;;;;;;5029610;28;24548;-48
2022/09/11 08:12:44;;;;;;;7.00;6.50;;;;;;;;;;5034480;28;24980;-47
2022/09/11 08:15:10;;;;;;;7.80;7.20;;;;;;;;;;5047276;28;24953;-47
2022/09/11 08:17:35;;;;;;;6.30;5.80;;;;;;;;;;5049391;28;24427;-47
2022/09/11 08:20:00;;;;;;;7.00;6.40;;;;;;;;;;5039759;28;24435;-47
2022/09/11 08:22:25;;;;;;;6.77;6.20;;;;;;;;;;5050010;28;24411;-48
2022/09/11 08:24:50;;;;;;;6.70;6.10;;;;;;;;;;5038728;28;24426;-47
2022/09/11 08:27:16;;;;;;;6.97;6.40;;;;;;;;;;5042251;28;24534;-47
2022/09/11 08:29:41;;;;;;;6.55;6.05;;;;;;;;;;5048454;28;24779;-47
2022/09/11 08:32:07;;;;;;;7.20;6.60;;;;;;;;;;5034367;28;24423;-47
2022/09/11 08:34:32;;;;;;;6.10;5.68;;;;;;;;;;5035528;28;24527;-47
2022/09/11 08:36:57;;;;;;;7.10;6.50;;;;;;;;;;5047816;28;24422;-48
2022/09/11 08:39:22;;;;;;;6.70;6.10;;;;;;;;;;5049062;28;24829;-47
2022/09/11 08:41:55;;;;;;;6.65;6.00;;;;;;;;;;5046990;28;22328;-47
2022/09/11 08:44:22;;;;;;;6.77;6.17;;;;;;;;;;5047559;28;24921;-47
2022/09/11 08:46:50;;;;;;;6.68;6.18;;;;;;;;;;5038941;28;24470;-47
2022/09/11 08:49:34;;;;;;;5.90;5.30;;;;;;;;;;5042291;28;24438;-47
2022/09/11 08:52:00;;;;;;;7.97;7.25;;;;;;;;;;5034064;28;24431;-48
2022/09/11 08:54:27;;;;;;;7.17;6.57;;;;;;;;;;5042134;28;24429;-47
2022/09/11 08:57:11;;;;;;;8.25;6.97;;;;;;;;;;5030587;28;24782;-46
2022/09/11 08:59:55;;;;;;;7.40;6.80;;;;;;;;;;5028762;28;24435;-47
2022/09/11 09:02:32;;;;;;;7.70;7.10;;;;;;;;;;5030656;28;24431;-46
2022/09/11 09:05:00;;;;;;;9.85;8.85;;;;;;;;;;5035901;28;24420;-47
2022/09/11 09:07:28;;;;;;;10.40;9.45;;;;;;;;;;5041818;28;24439;-47
2022/09/11 09:10:02;;;;;;;10.70;9.70;;;;;;;;;;5047306;28;24419;-45
2022/09/11 09:12:47;;;;;;;13.38;12.18;;;;;;;;;;5039473;28;25000;-46
2022/09/11 09:15:20;;;;;;;12.68;11.57;;;;;;;;;;5047820;28;24908;-46
2022/09/11 09:17:49;;;;;;;11.57;10.57;;;;;;;;;;5047333;28;24431;-45
2022/09/11 09:20:19;;;;;;;14.13;12.73;;;;;;;;;;5035748;28;24514;-46
2022/09/11 09:22:51;;;;;;;13.90;12.60;;;;;;;;;;5043390;28;24571;-48
2022/09/11 09:25:19;;;;;;;14.47;13.17;;;;;;;;;;5047241;28;24508;-47
2022/09/11 09:27:45;;;;;;;13.35;12.25;;;;;;;;;;5048947;28;24503;-47
2022/09/11 09:30:23;;;;;;;14.45;13.15;;;;;;;;;;5044184;28;24396;-47
2022/09/11 09:32:52;;;;;;;14.40;13.20;;;;;;;;;;5035336;28;24403;-47
2022/09/11 09:35:22;;;;;;;16.20;14.70;;;;;;;;;;5047350;28;24459;-47
2022/09/11 09:37:47;;;;;;;15.18;13.88;;;;;;;;;;5047907;28;24521;-46
2022/09/11 09:40:16;;;;;;;15.80;14.50;;;;;;;;;;5044354;28;24479;-46
2022/09/11 09:42:47;;;;;;;18.20;16.57;;;;;;;;;;5031477;28;24474;-46
2022/09/11 09:45:36;;;;;;;17.53;16.03;;;;;;;;;;5042887;28;24846;-47
2022/09/11 09:48:02;;;;;;;17.70;16.10;;;;;;;;;;5037232;28;24575;-46
2022/09/11 09:50:29;;;;;;;15.43;14.13;;;;;;;;;;5042037;28;24890;-46
2022/09/11 09:53:10;;;;;;;15.27;13.97;;;;;;;;;;5048490;28;24454;-46
2022/09/11 09:55:37;;;;;;;16.02;14.43;;;;;;;;;;5042269;28;25015;-47
2022/09/11 09:58:02;;;;;;;17.57;16.10;;;;;;;;;;5036058;28;24836;-46
2022/09/11 10:00:31;;;;;;;16.35;15.05;;;;;;;;;;5035355;28;24785;-46
2022/09/11 10:02:57;;;;;;;16.90;15.50;;;;;;;;;;5028239;28;24440;-47
2022/09/11 10:05:41;;;;;;;18.15;16.55;;;;;;;;;;5041899;28;24423;-47
2022/09/11 10:08:28;;;;;;;17.55;16.15;;;;;;;;;;5046971;28;24392;-47
2022/09/11 10:10:57;;;;;;;16.33;14.93;;;;;;;;;;5046550;28;24526;-47
2022/09/11 10:13:27;;;;;;;18.50;16.90;;;;;;;;;;5047956;28;24581;-47
2022/09/11 10:15:54;;;;;;;18.60;17.00;;;;;;;;;;5036359;28;24411;-47
2022/09/11 10:18:20;;;;;;;19.30;17.67;;;;;;;;;;5046717;28;24440;-47
2022/09/11 10:20:45;;;;;;;19.02;17.33;;;;;;;;;;5047220;28;24431;-47
2022/09/11 10:23:22;;;;;;;20.90;19.20;;;;;;;;;;5047422;28;24415;-48
2022/09/11 10:25:48;;;;;;;19.00;17.40;;;;;;;;;;5030040;28;25014;-47
2022/09/11 10:28:16;;;;;;;18.00;16.50;;;;;;;;;;5046784;28;24416;-47
2022/09/11 10:30:47;;;;;;;17.85;16.35;;;;;;;;;;5046222;28;24450;-46
2022/09/11 10:33:21;;;;;;;18.00;16.60;;;;;;;;;;5042822;28;25036;-47
2022/09/11 10:35:53;;;;;;;20.08;18.38;;;;;;;;;;5043560;28;24481;-46
2022/09/11 10:38:19;;;;;;;19.27;17.67;;;;;;;;;;5043806;28;24419;-47
2022/09/11 10:41:20;;;;;;;20.40;18.60;;;;;;;;;;5027440;28;24985;-47
2022/09/11 10:43:57;;;;;;;17.65;16.15;;;;;;;;;;5027571;28;24435;-47
2022/09/11 10:46:24;;;;;;;15.88;14.48;;;;;;;;;;5045254;28;24427;-46
2022/09/11 10:48:54;;;;;;;19.42;17.73;;;;;;;;;;5033283;28;24423;-46
2022/09/11 10:51:19;;;;;;;21.30;19.40;;;;;;;;;;5033868;28;24443;-47
2022/09/11 10:54:16;;;;;;;19.80;18.10;;;;;;;;;;5033071;28;24433;-47
2022/09/11 10:56:55;;;;;;;17.02;15.48;;;;;;;;;;5039749;28;24439;-47
2022/09/11 10:59:23;;;;;;;18.55;16.92;;;;;;;;;;5031533;28;24704;-46
2022/09/11 11:01:49;;;;;;;18.20;16.60;;;;;;;;;;5044592;28;24522;-46
2022/09/11 11:04:15;;;;;;;17.42;15.88;;;;;;;;;;5036984;28;24430;-46
2022/09/11 11:06:51;;;;;;;15.80;14.40;;;;;;;;;;5030353;28;24984;-47
2022/09/11 11:09:25;;;;;;;16.63;15.13;;;;;;;;;;5035451;28;25153;-48
2022/09/11 11:11:54;;;;;;;16.00;14.60;;;;;;;;;;5042830;28;24786;-47
2022/09/11 11:14:36;;;;;;;14.82;13.52;;;;;;;;;;5045800;28;24446;-48
2022/09/11 11:17:17;;;;;;;15.15;13.75;;;;;;;;;;5045900;28;24534;-48
2022/09/11 11:20:04;;;;;;;15.07;13.68;;;;;;;;;;5032993;28;24431;-47
2022/09/11 11:22:48;;;;;;;13.30;12.10;;;;;;;;;;5040824;28;24522;-45
2022/09/11 11:25:18;;;;;;;13.30;12.10;;;;;;;;;;5031742;28;24431;-47
2022/09/11 11:27:59;;;;;;;14.57;13.18;;;;;;;;;;5041139;28;24423;-47
2022/09/11 11:30:44;;;;;;;13.50;12.30;;;;;;;;;;5031951;28;24453;-46
2022/09/11 11:33:16;;;;;;;13.23;12.03;;;;;;;;;;5035031;28;24423;-48
2022/09/11 11:35:47;;;;;;;14.50;13.20;;;;;;;;;;5039783;28;24438;-47
2022/09/11 11:38:23;;;;;;;12.32;11.23;;;;;;;;;;5031640;28;24424;-47
2022/09/11 11:40:55;;;;;;;14.40;13.00;;;;;;;;;;5040529;28;24830;-48
2022/09/11 11:43:22;;;;;;;13.10;11.90;;;;;;;;;;5037490;28;24762;-48
2022/09/11 11:45:54;;;;;;;11.43;10.45;;;;;;;;;;5045567;28;25055;-47
2022/09/11 11:48:38;;;;;;;13.98;12.68;;;;;;;;;;5032991;28;24427;-47
2022/09/11 11:51:08;;;;;;;15.00;13.50;;;;;;;;;;5027487;28;24470;-46
2022/09/11 11:53:51;;;;;;;13.48;12.27;;;;;;;;;;5033788;28;24511;-46
2022/09/11 11:56:23;;;;;;;16.02;14.55;;;;;;;;;;5032551;28;24470;-46
2022/09/11 11:58:56;;;;;;;13.35;12.07;;;;;;;;;;5053320;28;24410;-46
2022/09/11 12:01:24;;;;;;;13.80;12.50;;;;;;;;;;5039783;28;24530;-47
2022/09/11 12:03:58;;;;;;;14.80;13.40;;;;;;;;;;5040074;28;24434;-47
2022/09/11 12:06:23;;;;;;;16.40;14.80;;;;;;;;;;5036020;28;24458;-48
2022/09/11 12:08:48;;;;;;;16.90;15.40;;;;;;;;;;5043599;28;24454;-48
2022/09/11 12:11:16;;;;;;;15.23;13.83;;;;;;;;;;5042597;28;24446;-47
2022/09/11 12:13:42;;;;;;;14.80;13.40;;;;;;;;;;5033509;28;24454;-47
2022/09/11 12:16:14;;;;;;;14.38;13.07;;;;;;;;;;5045830;28;24425;-47
2022/09/11 12:18:40;;;;;;;15.40;14.00;;;;;;;;;;5045653;28;24798;-46
2022/09/11 12:21:24;;;;;;;14.50;13.30;;;;;;;;;;5045747;28;24511;-47
2022/09/11 12:23:49;;;;;;;13.10;11.90;;;;;;;;;;5039749;28;24988;-47
2022/09/11 12:26:14;;;;;;;15.35;13.95;;;;;;;;;;5028574;28;25002;-46
2022/09/11 12:28:39;;;;;;;14.87;13.47;;;;;;;;;;5042897;28;24447;-47
2022/09/11 12:31:05;;;;;;;13.60;12.40;;;;;;;;;;5045342;28;24457;-47
2022/09/11 12:33:39;;;;;;;13.93;12.67;;;;;;;;;;5043936;28;25061;-47
2022/09/11 12:36:05;;;;;;;12.68;11.57;;;;;;;;;;5045268;28;24788;-46
2022/09/11 12:38:39;;;;;;;15.38;13.98;;;;;;;;;;5043879;28;25007;-47
2022/09/11 12:41:09;;;;;;;13.00;11.80;;;;;;;;;;5045177;28;25022;-47
2022/09/11 12:43:35;;;;;;;12.70;11.40;;;;;;;;;;5042136;28;24476;-46
2022/09/11 12:46:01;;;;;;;12.53;11.43;;;;;;;;;;5025839;28;24388;-47
2022/09/11 12:48:37;;;;;;;11.83;10.73;;;;;;;;;;5025889;28;24395;-47
2022/09/11 12:51:03;;;;;;;12.07;11.07;;;;;;;;;;5025867;28;24398;-47
2022/09/11 12:53:31;;;;;;;13.55;12.40;;;;;;;;;;5029978;28;24427;-47
2022/09/11 12:56:03;;;;;;;11.60;10.60;;;;;;;;;;5049084;28;24475;-47
2022/09/11 12:58:32;;;;;;;12.80;11.70;;;;;;;;;;5048450;28;24419;-47
2022/09/11 13:01:13;;;;;;;12.02;11.02;;;;;;;;;;5045627;28;24484;-47
2022/09/11 13:03:47;;;;;;;11.80;10.80;;;;;;;;;;5036772;28;24423;-47
2022/09/11 13:06:13;;;;;;;12.90;11.70;;;;;;;;;;5048914;28;24398;-47
2022/09/11 13:08:44;;;;;;;12.25;11.25;;;;;;;;;;5044858;28;24419;-47
2022/09/11 13:11:29;;;;;;;10.13;9.32;;;;;;;;;;5047826;28;24504;-47
2022/09/11 13:13:54;;;;;;;10.00;9.20;;;;;;;;;;5048806;28;24979;-47
2022/09/11 13:16:24;;;;;;;10.00;9.10;;;;;;;;;;5048450;28;24407;-47
2022/09/11 13:18:49;;;;;;;9.65;8.75;;;;;;;;;;5047247;28;24809;-47
2022/09/11 13:21:17;;;;;;;10.60;9.50;;;;;;;;;;5047110;28;24440;-47
2022/09/11 13:23:42;;;;;;;10.40;9.40;;;;;;;;;;5044270;28;24461;-46
2022/09/11 13:26:11;;;;;;;9.90;9.00;;;;;;;;;;5048783;28;24426;-46
2022/09/11 13:28:48;;;;;;;11.15;10.00;;;;;;;;;;5048744;28;24490;-46
2022/09/11 13:31:18;;;;;;;8.60;7.80;;;;;;;;;;5047753;28;24929;-47
2022/09/11 13:33:48;;;;;;;11.40;10.30;;;;;;;;;;5029453;28;24408;-46
2022/09/11 13:36:13;;;;;;;9.52;8.63;;;;;;;;;;5028286;28;24426;-46
2022/09/11 13:38:41;;;;;;;9.77;8.87;;;;;;;;;;5030429;28;24534;-47
2022/09/11 13:41:11;;;;;;;10.48;9.57;;;;;;;;;;5048335;28;24437;-46
2022/09/11 13:43:38;;;;;;;9.88;8.98;;;;;;;;;;5043973;28;24508;-46
2022/09/11 13:46:15;;;;;;;9.55;8.65;;;;;;;;;;5048377;28;24418;-46
2022/09/11 13:48:42;;;;;;;10.18;8.45;;;;;;;;;;5048447;28;24567;-47
2022/09/11 13:51:15;;;;;;;8.38;7.57;;;;;;;;;;5048098;28;24659;-46
2022/09/11 13:53:41;;;;;;;8.60;7.80;;;;;;;;;;5044688;28;24427;-47
2022/09/11 13:56:20;;;;;;;8.52;7.72;;;;;;;;;;5030909;28;24482;-47
2022/09/11 13:58:45;;;;;;;10.35;9.45;;;;;;;;;;5028012;28;24392;-47
2022/09/11 14:01:11;;;;;;;9.32;8.43;;;;;;;;;;5028267;28;24968;-47
2022/09/11 14:03:38;;;;;;;8.63;7.82;;;;;;;;;;5028009;28;24483;-46
2022/09/11 14:06:13;;;;;;;9.88;8.98;;;;;;;;;;5028106;28;24435;-46
2022/09/11 14:08:41;;;;;;;10.40;9.50;;;;;;;;;;5039048;28;24462;-47
2022/09/11 14:11:08;;;;;;;8.07;7.38;;;;;;;;;;5048038;28;24754;-46
2022/09/11 14:13:43;;;;;;;8.20;7.50;;;;;;;;;;5047837;28;24391;-46
2022/09/11 14:16:14;;;;;;;8.20;7.50;;;;;;;;;;5047746;28;24447;-45
2022/09/11 14:18:41;;;;;;;7.38;6.78;;;;;;;;;;5038150;28;24435;-46
2022/09/11 14:21:16;;;;;;;8.20;7.50;;;;;;;;;;5027640;28;24490;-47
2022/09/11 14:23:48;;;;;;;7.35;6.65;;;;;;;;;;5034879;28;24411;-47
2022/09/11 14:26:18;;;;;;;7.38;6.78;;;;;;;;;;5035439;28;24505;-46
2022/09/11 14:28:45;;;;;;;7.32;6.72;;;;;;;;;;5047143;28;24462;-47
2022/09/11 14:31:12;;;;;;;7.20;6.60;;;;;;;;;;5046510;28;24763;-47
2022/09/11 14:33:37;;;;;;;7.10;6.50;;;;;;;;;;5046563;28;24398;-47
2022/09/11 14:36:10;;;;;;;8.43;7.63;;;;;;;;;;5047565;28;24476;-49
2022/09/11 14:38:37;;;;;;;9.00;7.47;;;;;;;;;;5030625;28;24436;-48
2022/09/11 14:41:04;;;;;;;7.10;6.53;;;;;;;;;;5045497;28;25007;-48
2022/09/11 14:43:32;;;;;;;6.78;6.18;;;;;;;;;;5046857;28;24400;-46